sensor_id;sensor_type;location;lat;lon;timestamp;P1;P2;P0
72329;PMS5003;69154;52.076;5.110;2023-06-22T00:02:05;15;15;
72329;PMS5003;69154;52.076;5.110;2023-06-22T00:04:30;20;18;
72329;PMS5003;69154;52.076;5.110;2023-06-22T00:06:55;16;15;
72329;PMS5003;69154;52.076;5.110;2023-06-22T00:09:20;18;17;
72329;PMS5003;69154;52.076;5.110;2023-06-22T00:11:45;18;18;
72329;PMS5003;69154;52.076;5.110;2023-06-22T00:14:10;20;19;
72329;PMS5003;69154;52.076;5.110;2023-06-22T00:16:35;18;18;
72329;PMS5003;69154;52.076;5.110;2023-06-22T00:19:01;20;20;
72329;PMS5003;69154;52.076;5.110;2023-06-22T00:21:26;20;20;
72329;PMS5003;69154;52.076;5.110;2023-06-22T00:23:52;23;22;
72329;PMS5003;69154;52.076;5.110;2023-06-22T00:26:17;24;24;
72329;PMS5003;69154;52.076;5.110;2023-06-22T00:28:43;24;24;
72329;PMS5003;69154;52.076;5.110;2023-06-22T00:31:08;25;24;
72329;PMS5003;69154;52.076;5.110;2023-06-22T00:33:34;24;23;
72329;PMS5003;69154;52.076;5.110;2023-06-22T00:35:59;20;19;
72329;PMS5003;69154;52.076;5.110;2023-06-22T00:38:25;23;22;
72329;PMS5003;69154;52.076;5.110;2023-06-22T00:40:51;29;29;
72329;PMS5003;69154;52.076;5.110;2023-06-22T00:43:16;24;24;
72329;PMS5003;69154;52.076;5.110;2023-06-22T00:45:41;28;26;
72329;PMS5003;69154;52.076;5.110;2023-06-22T00:48:06;28;27;
72329;PMS5003;69154;52.076;5.110;2023-06-22T00:50:33;25;24;
72329;PMS5003;69154;52.076;5.110;2023-06-22T00:52:57;21;19;
72329;PMS5003;69154;52.076;5.110;2023-06-22T00:55:22;27;26;
72329;PMS5003;69154;52.076;5.110;2023-06-22T00:57:47;23;22;
72329;PMS5003;69154;52.076;5.110;2023-06-22T01:00:13;26;25;
72329;PMS5003;69154;52.076;5.110;2023-06-22T01:02:38;27;26;
72329;PMS5003;69154;52.076;5.110;2023-06-22T01:05:03;29;28;
72329;PMS5003;69154;52.076;5.110;2023-06-22T01:07:30;33;31;
72329;PMS5003;69154;52.076;5.110;2023-06-22T01:09:56;23;23;
72329;PMS5003;69154;52.076;5.110;2023-06-22T01:12:19;30;30;
72329;PMS5003;69154;52.076;5.110;2023-06-22T01:14:47;28;27;
72329;PMS5003;69154;52.076;5.110;2023-06-22T01:17:10;28;28;
72329;PMS5003;69154;52.076;5.110;2023-06-22T01:19:38;31;26;
72329;PMS5003;69154;52.076;5.110;2023-06-22T01:22:01;25;24;
72329;PMS5003;69154;52.076;5.110;2023-06-22T01:24:28;31;29;
72329;PMS5003;69154;52.076;5.110;2023-06-22T01:26:54;26;26;
72329;PMS5003;69154;52.076;5.110;2023-06-22T01:29:17;28;28;
72329;PMS5003;69154;52.076;5.110;2023-06-22T01:31:43;27;26;
72329;PMS5003;69154;52.076;5.110;2023-06-22T01:34:09;25;24;
72329;PMS5003;69154;52.076;5.110;2023-06-22T01:36:34;24;24;
72329;PMS5003;69154;52.076;5.110;2023-06-22T01:39:00;26;26;
72329;PMS5003;69154;52.076;5.110;2023-06-22T01:41:26;28;27;
72329;PMS5003;69154;52.076;5.110;2023-06-22T01:43:50;27;26;
72329;PMS5003;69154;52.076;5.110;2023-06-22T01:46:16;26;25;
72329;PMS5003;69154;52.076;5.110;2023-06-22T01:48:41;26;25;
72329;PMS5003;69154;52.076;5.110;2023-06-22T01:51:07;28;27;
72329;PMS5003;69154;52.076;5.110;2023-06-22T01:53:32;27;25;
72329;PMS5003;69154;52.076;5.110;2023-06-22T01:55:58;26;25;
72329;PMS5003;69154;52.076;5.110;2023-06-22T01:58:24;22;22;
72329;PMS5003;69154;52.076;5.110;2023-06-22T02:00:50;26;25;
72329;PMS5003;69154;52.076;5.110;2023-06-22T02:03:14;28;27;
72329;PMS5003;69154;52.076;5.110;2023-06-22T02:05:42;25;23;
72329;PMS5003;69154;52.076;5.110;2023-06-22T02:08:06;24;24;
72329;PMS5003;69154;52.076;5.110;2023-06-22T02:10:30;25;25;
72329;PMS5003;69154;52.076;5.110;2023-06-22T02:12:55;30;28;
72329;PMS5003;69154;52.076;5.110;2023-06-22T02:15:21;29;27;
72329;PMS5003;69154;52.076;5.110;2023-06-22T02:17:47;29;28;
72329;PMS5003;69154;52.076;5.110;2023-06-22T02:20:12;28;27;
72329;PMS5003;69154;52.076;5.110;2023-06-22T02:22:38;35;31;
72329;PMS5003;69154;52.076;5.110;2023-06-22T02:25:04;31;29;
72329;PMS5003;69154;52.076;5.110;2023-06-22T02:27:29;26;25;
72329;PMS5003;69154;52.076;5.110;2023-06-22T02:29:55;29;28;
72329;PMS5003;69154;52.076;5.110;2023-06-22T02:32:20;28;27;
72329;PMS5003;69154;52.076;5.110;2023-06-22T02:34:45;24;23;
72329;PMS5003;69154;52.076;5.110;2023-06-22T02:37:11;32;30;
72329;PMS5003;69154;52.076;5.110;2023-06-22T02:39:36;32;28;
72329;PMS5003;69154;52.076;5.110;2023-06-22T02:42:01;27;26;
72329;PMS5003;69154;52.076;5.110;2023-06-22T02:44:26;31;30;
72329;PMS5003;69154;52.076;5.110;2023-06-22T02:46:51;34;30;
72329;PMS5003;69154;52.076;5.110;2023-06-22T02:49:17;37;34;
72329;PMS5003;69154;52.076;5.110;2023-06-22T02:51:44;30;29;
72329;PMS5003;69154;52.076;5.110;2023-06-22T02:54:07;33;31;
72329;PMS5003;69154;52.076;5.110;2023-06-22T02:56:33;27;26;
72329;PMS5003;69154;52.076;5.110;2023-06-22T02:58:58;27;27;
72329;PMS5003;69154;52.076;5.110;2023-06-22T03:01:23;32;30;
72329;PMS5003;69154;52.076;5.110;2023-06-22T03:03:48;31;27;
72329;PMS5003;69154;52.076;5.110;2023-06-22T03:06:14;26;26;
72329;PMS5003;69154;52.076;5.110;2023-06-22T03:08:39;32;30;
72329;PMS5003;69154;52.076;5.110;2023-06-22T03:11:04;30;29;
72329;PMS5003;69154;52.076;5.110;2023-06-22T03:13:30;29;28;
72329;PMS5003;69154;52.076;5.110;2023-06-22T03:15:55;23;22;
72329;PMS5003;69154;52.076;5.110;2023-06-22T03:18:20;25;24;
72329;PMS5003;69154;52.076;5.110;2023-06-22T03:20:45;23;22;
72329;PMS5003;69154;52.076;5.110;2023-06-22T03:23:11;26;23;
72329;PMS5003;69154;52.076;5.110;2023-06-22T03:25:36;25;24;
72329;PMS5003;69154;52.076;5.110;2023-06-22T03:28:01;26;25;
72329;PMS5003;69154;52.076;5.110;2023-06-22T03:30:27;27;25;
72329;PMS5003;69154;52.076;5.110;2023-06-22T03:32:52;28;28;
72329;PMS5003;69154;52.076;5.110;2023-06-22T03:35:18;29;27;
72329;PMS5003;69154;52.076;5.110;2023-06-22T03:37:43;29;28;
72329;PMS5003;69154;52.076;5.110;2023-06-22T03:40:09;26;24;
72329;PMS5003;69154;52.076;5.110;2023-06-22T03:42:34;29;29;
72329;PMS5003;69154;52.076;5.110;2023-06-22T03:45:00;26;25;
72329;PMS5003;69154;52.076;5.110;2023-06-22T03:47:26;33;32;
72329;PMS5003;69154;52.076;5.110;2023-06-22T03:49:51;29;29;
72329;PMS5003;69154;52.076;5.110;2023-06-22T03:52:17;32;32;
72329;PMS5003;69154;52.076;5.110;2023-06-22T03:54:42;30;27;
72329;PMS5003;69154;52.076;5.110;2023-06-22T03:57:08;30;29;
72329;PMS5003;69154;52.076;5.110;2023-06-22T03:59:33;34;33;
72329;PMS5003;69154;52.076;5.110;2023-06-22T04:01:59;32;31;
72329;PMS5003;69154;52.076;5.110;2023-06-22T04:04:25;32;31;
72329;PMS5003;69154;52.076;5.110;2023-06-22T04:06:50;29;29;
72329;PMS5003;69154;52.076;5.110;2023-06-22T04:09:16;30;29;
72329;PMS5003;69154;52.076;5.110;2023-06-22T04:11:41;36;34;
72329;PMS5003;69154;52.076;5.110;2023-06-22T04:14:06;30;29;
72329;PMS5003;69154;52.076;5.110;2023-06-22T04:16:32;32;31;
72329;PMS5003;69154;52.076;5.110;2023-06-22T04:18:58;32;31;
72329;PMS5003;69154;52.076;5.110;2023-06-22T04:21:23;34;33;
72329;PMS5003;69154;52.076;5.110;2023-06-22T04:23:48;30;29;
72329;PMS5003;69154;52.076;5.110;2023-06-22T04:26:13;34;32;
72329;PMS5003;69154;52.076;5.110;2023-06-22T04:28:39;33;33;
72329;PMS5003;69154;52.076;5.110;2023-06-22T04:31:05;33;32;
72329;PMS5003;69154;52.076;5.110;2023-06-22T04:33:30;30;30;
72329;PMS5003;69154;52.076;5.110;2023-06-22T04:35:55;31;30;
72329;PMS5003;69154;52.076;5.110;2023-06-22T04:38:21;34;32;
72329;PMS5003;69154;52.076;5.110;2023-06-22T04:40:47;34;32;
72329;PMS5003;69154;52.076;5.110;2023-06-22T04:43:12;32;32;
72329;PMS5003;69154;52.076;5.110;2023-06-22T04:45:37;30;30;
72329;PMS5003;69154;52.076;5.110;2023-06-22T04:48:02;36;33;
72329;PMS5003;69154;52.076;5.110;2023-06-22T04:50:27;34;32;
72329;PMS5003;69154;52.076;5.110;2023-06-22T04:52:53;33;32;
72329;PMS5003;69154;52.076;5.110;2023-06-22T04:55:19;32;31;
72329;PMS5003;69154;52.076;5.110;2023-06-22T04:57:43;32;31;
72329;PMS5003;69154;52.076;5.110;2023-06-22T05:00:09;31;30;
72329;PMS5003;69154;52.076;5.110;2023-06-22T05:02:35;32;32;
72329;PMS5003;69154;52.076;5.110;2023-06-22T05:05:00;32;30;
72329;PMS5003;69154;52.076;5.110;2023-06-22T05:07:26;35;33;
72329;PMS5003;69154;52.076;5.110;2023-06-22T05:09:51;32;29;
72329;PMS5003;69154;52.076;5.110;2023-06-22T05:12:16;34;33;
72329;PMS5003;69154;52.076;5.110;2023-06-22T05:14:41;36;31;
72329;PMS5003;69154;52.076;5.110;2023-06-22T05:17:07;34;31;
72329;PMS5003;69154;52.076;5.110;2023-06-22T05:19:32;34;32;
72329;PMS5003;69154;52.076;5.110;2023-06-22T05:21:58;29;29;
72329;PMS5003;69154;52.076;5.110;2023-06-22T05:24:24;33;32;
72329;PMS5003;69154;52.076;5.110;2023-06-22T05:26:49;34;33;
72329;PMS5003;69154;52.076;5.110;2023-06-22T05:29:15;35;35;
72329;PMS5003;69154;52.076;5.110;2023-06-22T05:31:39;33;32;
72329;PMS5003;69154;52.076;5.110;2023-06-22T05:34:04;33;32;
72329;PMS5003;69154;52.076;5.110;2023-06-22T05:36:30;35;35;
72329;PMS5003;69154;52.076;5.110;2023-06-22T05:38:56;35;34;
72329;PMS5003;69154;52.076;5.110;2023-06-22T05:41:21;31;29;
72329;PMS5003;69154;52.076;5.110;2023-06-22T05:43:47;36;34;
72329;PMS5003;69154;52.076;5.110;2023-06-22T05:46:12;30;30;
72329;PMS5003;69154;52.076;5.110;2023-06-22T05:48:37;31;30;
72329;PMS5003;69154;52.076;5.110;2023-06-22T05:51:03;36;34;
72329;PMS5003;69154;52.076;5.110;2023-06-22T05:53:28;30;29;
72329;PMS5003;69154;52.076;5.110;2023-06-22T05:55:53;30;28;
72329;PMS5003;69154;52.076;5.110;2023-06-22T05:58:19;32;31;
72329;PMS5003;69154;52.076;5.110;2023-06-22T06:00:44;34;33;
72329;PMS5003;69154;52.076;5.110;2023-06-22T06:03:10;34;31;
72329;PMS5003;69154;52.076;5.110;2023-06-22T06:05:36;42;40;
72329;PMS5003;69154;52.076;5.110;2023-06-22T06:08:02;39;39;
72329;PMS5003;69154;52.076;5.110;2023-06-22T06:10:26;46;44;
72329;PMS5003;69154;52.076;5.110;2023-06-22T06:12:52;48;46;
72329;PMS5003;69154;52.076;5.110;2023-06-22T06:15:17;45;44;
72329;PMS5003;69154;52.076;5.110;2023-06-22T06:17:45;49;47;
72329;PMS5003;69154;52.076;5.110;2023-06-22T06:20:08;46;44;
72329;PMS5003;69154;52.076;5.110;2023-06-22T06:22:34;41;40;
72329;PMS5003;69154;52.076;5.110;2023-06-22T06:24:59;46;46;
72329;PMS5003;69154;52.076;5.110;2023-06-22T06:27:25;48;46;
72329;PMS5003;69154;52.076;5.110;2023-06-22T06:29:50;50;49;
72329;PMS5003;69154;52.076;5.110;2023-06-22T06:32:16;50;49;
72329;PMS5003;69154;52.076;5.110;2023-06-22T06:34:41;51;49;
72329;PMS5003;69154;52.076;5.110;2023-06-22T06:37:07;46;46;
72329;PMS5003;69154;52.076;5.110;2023-06-22T06:39:32;48;48;
72329;PMS5003;69154;52.076;5.110;2023-06-22T06:41:57;46;45;
72329;PMS5003;69154;52.076;5.110;2023-06-22T06:44:23;47;44;
72329;PMS5003;69154;52.076;5.110;2023-06-22T06:46:48;47;44;
72329;PMS5003;69154;52.076;5.110;2023-06-22T06:49:14;47;46;
72329;PMS5003;69154;52.076;5.110;2023-06-22T06:51:38;47;43;
72329;PMS5003;69154;52.076;5.110;2023-06-22T06:54:03;46;44;
72329;PMS5003;69154;52.076;5.110;2023-06-22T06:56:29;46;46;
72329;PMS5003;69154;52.076;5.110;2023-06-22T06:58:54;47;47;
72329;PMS5003;69154;52.076;5.110;2023-06-22T07:01:19;44;44;
72329;PMS5003;69154;52.076;5.110;2023-06-22T07:03:45;46;44;
72329;PMS5003;69154;52.076;5.110;2023-06-22T07:06:10;44;41;
72329;PMS5003;69154;52.076;5.110;2023-06-22T07:08:36;45;43;
72329;PMS5003;69154;52.076;5.110;2023-06-22T07:11:02;37;36;
72329;PMS5003;69154;52.076;5.110;2023-06-22T07:13:27;46;44;
72329;PMS5003;69154;52.076;5.110;2023-06-22T07:15:53;55;51;
72329;PMS5003;69154;52.076;5.110;2023-06-22T07:18:18;47;46;
72329;PMS5003;69154;52.076;5.110;2023-06-22T07:20:44;49;49;
72329;PMS5003;69154;52.076;5.110;2023-06-22T07:23:09;46;46;
72329;PMS5003;69154;52.076;5.110;2023-06-22T07:25:35;41;41;
72329;PMS5003;69154;52.076;5.110;2023-06-22T07:28:01;46;44;
72329;PMS5003;69154;52.076;5.110;2023-06-22T07:30:26;40;39;
72329;PMS5003;69154;52.076;5.110;2023-06-22T07:32:51;44;43;
72329;PMS5003;69154;52.076;5.110;2023-06-22T07:35:16;47;43;
72329;PMS5003;69154;52.076;5.110;2023-06-22T07:37:42;43;42;
72329;PMS5003;69154;52.076;5.110;2023-06-22T07:40:07;44;44;
72329;PMS5003;69154;52.076;5.110;2023-06-22T07:42:32;39;39;
72329;PMS5003;69154;52.076;5.110;2023-06-22T07:44:57;46;43;
72329;PMS5003;69154;52.076;5.110;2023-06-22T07:47:23;41;40;
72329;PMS5003;69154;52.076;5.110;2023-06-22T07:49:48;45;45;
72329;PMS5003;69154;52.076;5.110;2023-06-22T07:52:15;38;37;
72329;PMS5003;69154;52.076;5.110;2023-06-22T07:54:39;39;38;
72329;PMS5003;69154;52.076;5.110;2023-06-22T07:57:05;39;38;
72329;PMS5003;69154;52.076;5.110;2023-06-22T07:59:31;47;45;
72329;PMS5003;69154;52.076;5.110;2023-06-22T08:01:57;39;39;
72329;PMS5003;69154;52.076;5.110;2023-06-22T08:04:22;35;35;
72329;PMS5003;69154;52.076;5.110;2023-06-22T08:06:47;39;39;
72329;PMS5003;69154;52.076;5.110;2023-06-22T08:09:12;35;34;
72329;PMS5003;69154;52.076;5.110;2023-06-22T08:11:37;37;36;
72329;PMS5003;69154;52.076;5.110;2023-06-22T08:14:02;35;35;
72329;PMS5003;69154;52.076;5.110;2023-06-22T08:16:28;31;30;
72329;PMS5003;69154;52.076;5.110;2023-06-22T08:18:54;37;35;
72329;PMS5003;69154;52.076;5.110;2023-06-22T08:21:19;41;40;
72329;PMS5003;69154;52.076;5.110;2023-06-22T08:23:44;38;35;
72329;PMS5003;69154;52.076;5.110;2023-06-22T08:26:10;32;32;
72329;PMS5003;69154;52.076;5.110;2023-06-22T08:28:35;38;36;
72329;PMS5003;69154;52.076;5.110;2023-06-22T08:31:01;34;33;
72329;PMS5003;69154;52.076;5.110;2023-06-22T08:33:27;31;30;
72329;PMS5003;69154;52.076;5.110;2023-06-22T08:35:52;37;32;
72329;PMS5003;69154;52.076;5.110;2023-06-22T08:38:17;29;29;
72329;PMS5003;69154;52.076;5.110;2023-06-22T08:40:42;32;31;
72329;PMS5003;69154;52.076;5.110;2023-06-22T08:43:08;35;32;
72329;PMS5003;69154;52.076;5.110;2023-06-22T08:45:33;31;30;
72329;PMS5003;69154;52.076;5.110;2023-06-22T08:47:58;29;29;
72329;PMS5003;69154;52.076;5.110;2023-06-22T08:50:23;27;26;
72329;PMS5003;69154;52.076;5.110;2023-06-22T08:52:49;29;29;
72329;PMS5003;69154;52.076;5.110;2023-06-22T08:55:14;30;29;
72329;PMS5003;69154;52.076;5.110;2023-06-22T08:57:39;33;33;
72329;PMS5003;69154;52.076;5.110;2023-06-22T09:00:05;24;23;
72329;PMS5003;69154;52.076;5.110;2023-06-22T09:02:30;24;22;
72329;PMS5003;69154;52.076;5.110;2023-06-22T09:04:56;24;23;
72329;PMS5003;69154;52.076;5.110;2023-06-22T09:07:21;31;28;
72329;PMS5003;69154;52.076;5.110;2023-06-22T09:09:46;31;31;
72329;PMS5003;69154;52.076;5.110;2023-06-22T09:12:12;29;28;
72329;PMS5003;69154;52.076;5.110;2023-06-22T09:14:37;18;18;
72329;PMS5003;69154;52.076;5.110;2023-06-22T09:17:03;20;19;
72329;PMS5003;69154;52.076;5.110;2023-06-22T09:19:27;27;27;
72329;PMS5003;69154;52.076;5.110;2023-06-22T09:21:53;24;22;
72329;PMS5003;69154;52.076;5.110;2023-06-22T09:24:18;23;22;
72329;PMS5003;69154;52.076;5.110;2023-06-22T09:26:44;18;18;
72329;PMS5003;69154;52.076;5.110;2023-06-22T09:29:09;19;18;
72329;PMS5003;69154;52.076;5.110;2023-06-22T09:31:34;19;19;
72329;PMS5003;69154;52.076;5.110;2023-06-22T09:34:00;18;18;
72329;PMS5003;69154;52.076;5.110;2023-06-22T09:36:25;19;19;
72329;PMS5003;69154;52.076;5.110;2023-06-22T09:38:51;19;18;
72329;PMS5003;69154;52.076;5.110;2023-06-22T09:41:16;19;19;
72329;PMS5003;69154;52.076;5.110;2023-06-22T09:43:42;23;22;
72329;PMS5003;69154;52.076;5.110;2023-06-22T09:46:07;19;19;
72329;PMS5003;69154;52.076;5.110;2023-06-22T09:48:33;21;21;
72329;PMS5003;69154;52.076;5.110;2023-06-22T09:50:58;24;23;
72329;PMS5003;69154;52.076;5.110;2023-06-22T09:53:24;23;20;
72329;PMS5003;69154;52.076;5.110;2023-06-22T09:55:49;18;17;
72329;PMS5003;69154;52.076;5.110;2023-06-22T09:58:14;16;16;
72329;PMS5003;69154;52.076;5.110;2023-06-22T10:00:40;19;17;
72329;PMS5003;69154;52.076;5.110;2023-06-22T10:03:05;25;25;
72329;PMS5003;69154;52.076;5.110;2023-06-22T10:05:31;26;26;
72329;PMS5003;69154;52.076;5.110;2023-06-22T10:07:56;24;24;
72329;PMS5003;69154;52.076;5.110;2023-06-22T10:10:22;25;25;
72329;PMS5003;69154;52.076;5.110;2023-06-22T10:12:48;27;27;
72329;PMS5003;69154;52.076;5.110;2023-06-22T10:15:13;25;25;
72329;PMS5003;69154;52.076;5.110;2023-06-22T10:17:38;29;29;
72329;PMS5003;69154;52.076;5.110;2023-06-22T10:20:04;28;28;
72329;PMS5003;69154;52.076;5.110;2023-06-22T10:22:29;14;14;
72329;PMS5003;69154;52.076;5.110;2023-06-22T10:24:54;18;17;
72329;PMS5003;69154;52.076;5.110;2023-06-22T10:27:20;20;19;
72329;PMS5003;69154;52.076;5.110;2023-06-22T10:29:45;16;16;
72329;PMS5003;69154;52.076;5.110;2023-06-22T10:32:11;19;19;
72329;PMS5003;69154;52.076;5.110;2023-06-22T10:34:37;17;16;
72329;PMS5003;69154;52.076;5.110;2023-06-22T10:37:02;18;18;
72329;PMS5003;69154;52.076;5.110;2023-06-22T10:39:28;15;15;
72329;PMS5003;69154;52.076;5.110;2023-06-22T10:41:53;22;22;
72329;PMS5003;69154;52.076;5.110;2023-06-22T10:44:18;23;23;
72329;PMS5003;69154;52.076;5.110;2023-06-22T10:46:44;26;24;
72329;PMS5003;69154;52.076;5.110;2023-06-22T10:49:10;25;25;
72329;PMS5003;69154;52.076;5.110;2023-06-22T10:51:36;21;21;
72329;PMS5003;69154;52.076;5.110;2023-06-22T10:54:01;21;21;
72329;PMS5003;69154;52.076;5.110;2023-06-22T10:56:27;22;22;
72329;PMS5003;69154;52.076;5.110;2023-06-22T10:58:52;20;19;
72329;PMS5003;69154;52.076;5.110;2023-06-22T11:01:17;20;20;
72329;PMS5003;69154;52.076;5.110;2023-06-22T11:03:43;21;21;
72329;PMS5003;69154;52.076;5.110;2023-06-22T11:06:08;20;20;
72329;PMS5003;69154;52.076;5.110;2023-06-22T11:08:34;16;16;
72329;PMS5003;69154;52.076;5.110;2023-06-22T11:10:59;21;21;
72329;PMS5003;69154;52.076;5.110;2023-06-22T11:13:25;22;22;
72329;PMS5003;69154;52.076;5.110;2023-06-22T11:15:50;23;22;
72329;PMS5003;69154;52.076;5.110;2023-06-22T11:18:15;25;24;
72329;PMS5003;69154;52.076;5.110;2023-06-22T11:20:41;21;20;
72329;PMS5003;69154;52.076;5.110;2023-06-22T11:23:06;21;20;
72329;PMS5003;69154;52.076;5.110;2023-06-22T11:25:32;20;19;
72329;PMS5003;69154;52.076;5.110;2023-06-22T11:27:57;24;23;
72329;PMS5003;69154;52.076;5.110;2023-06-22T11:30:23;21;21;
72329;PMS5003;69154;52.076;5.110;2023-06-22T11:32:48;21;21;
72329;PMS5003;69154;52.076;5.110;2023-06-22T11:35:14;22;22;
72329;PMS5003;69154;52.076;5.110;2023-06-22T11:37:39;19;19;
72329;PMS5003;69154;52.076;5.110;2023-06-22T11:40:05;21;21;
72329;PMS5003;69154;52.076;5.110;2023-06-22T11:42:30;19;19;
72329;PMS5003;69154;52.076;5.110;2023-06-22T11:44:55;17;17;
72329;PMS5003;69154;52.076;5.110;2023-06-22T11:47:21;17;17;
72329;PMS5003;69154;52.076;5.110;2023-06-22T11:49:47;21;20;
72329;PMS5003;69154;52.076;5.110;2023-06-22T11:52:12;17;17;
72329;PMS5003;69154;52.076;5.110;2023-06-22T11:54:37;18;18;
72329;PMS5003;69154;52.076;5.110;2023-06-22T11:57:03;22;22;
72329;PMS5003;69154;52.076;5.110;2023-06-22T11:59:28;24;24;
72329;PMS5003;69154;52.076;5.110;2023-06-22T12:01:53;26;25;
72329;PMS5003;69154;52.076;5.110;2023-06-22T12:04:19;25;24;
72329;PMS5003;69154;52.076;5.110;2023-06-22T12:06:44;26;26;
72329;PMS5003;69154;52.076;5.110;2023-06-22T12:09:10;28;27;
72329;PMS5003;69154;52.076;5.110;2023-06-22T12:11:35;27;26;
72329;PMS5003;69154;52.076;5.110;2023-06-22T12:14:00;25;25;
72329;PMS5003;69154;52.076;5.110;2023-06-22T12:16:26;30;27;
72329;PMS5003;69154;52.076;5.110;2023-06-22T12:18:51;28;28;
72329;PMS5003;69154;52.076;5.110;2023-06-22T12:21:17;27;25;
72329;PMS5003;69154;52.076;5.110;2023-06-22T12:23:42;33;32;
72329;PMS5003;69154;52.076;5.110;2023-06-22T12:26:07;26;25;
72329;PMS5003;69154;52.076;5.110;2023-06-22T12:28:32;29;27;
72329;PMS5003;69154;52.076;5.110;2023-06-22T12:30:57;30;30;
72329;PMS5003;69154;52.076;5.110;2023-06-22T12:33:23;23;23;
72329;PMS5003;69154;52.076;5.110;2023-06-22T12:35:48;27;26;
72329;PMS5003;69154;52.076;5.110;2023-06-22T12:38:14;28;28;
72329;PMS5003;69154;52.076;5.110;2023-06-22T12:40:39;34;34;
72329;PMS5003;69154;52.076;5.110;2023-06-22T12:43:05;32;30;
72329;PMS5003;69154;52.076;5.110;2023-06-22T12:45:30;31;31;
72329;PMS5003;69154;52.076;5.110;2023-06-22T12:47:56;33;32;
72329;PMS5003;69154;52.076;5.110;2023-06-22T12:50:21;35;32;
72329;PMS5003;69154;52.076;5.110;2023-06-22T12:52:46;32;30;
72329;PMS5003;69154;52.076;5.110;2023-06-22T12:55:12;34;34;
72329;PMS5003;69154;52.076;5.110;2023-06-22T12:57:37;34;34;
72329;PMS5003;69154;52.076;5.110;2023-06-22T13:00:03;35;33;
72329;PMS5003;69154;52.076;5.110;2023-06-22T13:02:28;41;40;
72329;PMS5003;69154;52.076;5.110;2023-06-22T13:04:53;38;37;
72329;PMS5003;69154;52.076;5.110;2023-06-22T13:07:19;41;40;
72329;PMS5003;69154;52.076;5.110;2023-06-22T13:09:44;43;41;
72329;PMS5003;69154;52.076;5.110;2023-06-22T13:12:10;42;39;
72329;PMS5003;69154;52.076;5.110;2023-06-22T13:14:35;41;40;
72329;PMS5003;69154;52.076;5.110;2023-06-22T13:17:01;42;41;
72329;PMS5003;69154;52.076;5.110;2023-06-22T13:19:26;45;43;
72329;PMS5003;69154;52.076;5.110;2023-06-22T13:21:51;48;46;
72329;PMS5003;69154;52.076;5.110;2023-06-22T13:24:17;48;47;
72329;PMS5003;69154;52.076;5.110;2023-06-22T13:26:42;48;46;
72329;PMS5003;69154;52.076;5.110;2023-06-22T13:29:08;47;45;
72329;PMS5003;69154;52.076;5.110;2023-06-22T13:31:33;48;46;
72329;PMS5003;69154;52.076;5.110;2023-06-22T13:33:59;50;49;
72329;PMS5003;69154;52.076;5.110;2023-06-22T13:36:24;42;42;
72329;PMS5003;69154;52.076;5.110;2023-06-22T13:38:49;38;37;
72329;PMS5003;69154;52.076;5.110;2023-06-22T13:41:15;43;43;
72329;PMS5003;69154;52.076;5.110;2023-06-22T13:43:41;48;47;
72329;PMS5003;69154;52.076;5.110;2023-06-22T13:46:06;45;44;
72329;PMS5003;69154;52.076;5.110;2023-06-22T13:48:31;45;44;
72329;PMS5003;69154;52.076;5.110;2023-06-22T13:50:56;48;47;
72329;PMS5003;69154;52.076;5.110;2023-06-22T13:53:21;46;45;
72329;PMS5003;69154;52.076;5.110;2023-06-22T13:55:47;51;50;
72329;PMS5003;69154;52.076;5.110;2023-06-22T13:58:13;43;43;
72329;PMS5003;69154;52.076;5.110;2023-06-22T14:00:38;46;45;
72329;PMS5003;69154;52.076;5.110;2023-06-22T14:03:03;49;47;
72329;PMS5003;69154;52.076;5.110;2023-06-22T14:05:29;45;45;
72329;PMS5003;69154;52.076;5.110;2023-06-22T14:07:54;46;45;
72329;PMS5003;69154;52.076;5.110;2023-06-22T14:10:19;49;47;
72329;PMS5003;69154;52.076;5.110;2023-06-22T14:12:45;46;42;
72329;PMS5003;69154;52.076;5.110;2023-06-22T14:15:10;46;45;
72329;PMS5003;69154;52.076;5.110;2023-06-22T14:17:35;49;48;
72329;PMS5003;69154;52.076;5.110;2023-06-22T14:20:00;48;45;
72329;PMS5003;69154;52.076;5.110;2023-06-22T14:22:26;44;43;
72329;PMS5003;69154;52.076;5.110;2023-06-22T14:24:51;46;43;
72329;PMS5003;69154;52.076;5.110;2023-06-22T14:27:17;50;47;
72329;PMS5003;69154;52.076;5.110;2023-06-22T14:29:43;42;42;
72329;PMS5003;69154;52.076;5.110;2023-06-22T14:32:08;44;42;
72329;PMS5003;69154;52.076;5.110;2023-06-22T14:34:34;41;40;
72329;PMS5003;69154;52.076;5.110;2023-06-22T14:36:59;46;43;
72329;PMS5003;69154;52.076;5.110;2023-06-22T14:39:24;42;39;
72329;PMS5003;69154;52.076;5.110;2023-06-22T14:41:50;51;48;
72329;PMS5003;69154;52.076;5.110;2023-06-22T14:44:16;47;44;
72329;PMS5003;69154;52.076;5.110;2023-06-22T14:46:41;49;46;
72329;PMS5003;69154;52.076;5.110;2023-06-22T14:49:07;47;45;
72329;PMS5003;69154;52.076;5.110;2023-06-22T14:51:32;44;43;
72329;PMS5003;69154;52.076;5.110;2023-06-22T14:53:58;46;43;
72329;PMS5003;69154;52.076;5.110;2023-06-22T14:56:24;44;42;
72329;PMS5003;69154;52.076;5.110;2023-06-22T14:58:49;45;43;
72329;PMS5003;69154;52.076;5.110;2023-06-22T15:01:16;46;46;
72329;PMS5003;69154;52.076;5.110;2023-06-22T15:03:41;46;46;
72329;PMS5003;69154;52.076;5.110;2023-06-22T15:06:07;47;47;
72329;PMS5003;69154;52.076;5.110;2023-06-22T15:08:32;45;41;
72329;PMS5003;69154;52.076;5.110;2023-06-22T15:10:58;45;43;
72329;PMS5003;69154;52.076;5.110;2023-06-22T15:13:23;42;42;
72329;PMS5003;69154;52.076;5.110;2023-06-22T15:15:50;44;43;
72329;PMS5003;69154;52.076;5.110;2023-06-22T15:18:15;38;38;
72329;PMS5003;69154;52.076;5.110;2023-06-22T15:20:40;37;36;
72329;PMS5003;69154;52.076;5.110;2023-06-22T15:23:06;36;35;
72329;PMS5003;69154;52.076;5.110;2023-06-22T15:25:31;31;31;
72329;PMS5003;69154;52.076;5.110;2023-06-22T15:27:57;39;36;
72329;PMS5003;69154;52.076;5.110;2023-06-22T15:30:23;34;32;
72329;PMS5003;69154;52.076;5.110;2023-06-22T15:32:48;37;35;
72329;PMS5003;69154;52.076;5.110;2023-06-22T15:35:14;36;36;
72329;PMS5003;69154;52.076;5.110;2023-06-22T15:37:39;35;34;
72329;PMS5003;69154;52.076;5.110;2023-06-22T15:40:05;38;37;
72329;PMS5003;69154;52.076;5.110;2023-06-22T15:42:30;38;38;
72329;PMS5003;69154;52.076;5.110;2023-06-22T15:44:56;42;40;
72329;PMS5003;69154;52.076;5.110;2023-06-22T15:47:21;42;42;
72329;PMS5003;69154;52.076;5.110;2023-06-22T15:49:47;41;39;
72329;PMS5003;69154;52.076;5.110;2023-06-22T15:52:12;41;40;
72329;PMS5003;69154;52.076;5.110;2023-06-22T15:54:38;44;43;
72329;PMS5003;69154;52.076;5.110;2023-06-22T15:57:04;32;31;
72329;PMS5003;69154;52.076;5.110;2023-06-22T15:59:29;31;30;
72329;PMS5003;69154;52.076;5.110;2023-06-22T16:01:54;35;33;
72329;PMS5003;69154;52.076;5.110;2023-06-22T16:04:20;28;28;
72329;PMS5003;69154;52.076;5.110;2023-06-22T16:06:45;31;31;